Time;durP1;ratioP1;P1;durP2;ratioP2;P2;SDS_P1;SDS_P2;PMS_P1;PMS_P2;Temp;Humidity;BMP_temperature;BMP_pressure;BME280_temperature;BME280_humidity;BME280_pressure;Samples;Min_cycle;Max_cycle;Signal;HPM_P1;HPM_P2
2022/04/08 00:00:01;;;;;;;2.05;0.47;;;9.60;99.90;;;;;;5012864;28;20030;-61
2022/04/08 00:02:26;;;;;;;3.30;0.95;;;9.70;99.90;;;;;;5012569;28;20022;-61
2022/04/08 00:04:52;;;;;;;2.05;0.60;;;9.50;99.90;;;;;;5012109;28;20048;-61
2022/04/08 00:07:18;;;;;;;2.10;0.63;;;9.20;99.90;;;;;;5012248;28;20053;-61
2022/04/08 00:09:43;;;;;;;2.75;0.75;;;9.10;99.90;;;;;;5013448;28;20026;-61
2022/04/08 00:12:09;;;;;;;2.75;1.00;;;9.10;99.90;;;;;;5012476;28;20069;-61
2022/04/08 00:14:36;;;;;;;6.70;0.90;;;9.00;99.90;;;;;;5013192;28;20030;-61
2022/04/08 00:17:02;;;;;;;4.05;0.80;;;8.90;99.90;;;;;;5012132;28;20049;-62
2022/04/08 00:19:28;;;;;;;5.03;0.80;;;8.90;99.90;;;;;;5012017;28;20043;-61
2022/04/08 00:21:53;;;;;;;2.00;0.50;;;8.90;99.90;;;;;;5012148;28;20029;-61
2022/04/08 00:24:19;;;;;;;1.52;0.57;;;8.80;99.90;;;;;;5012686;28;20026;-61
2022/04/08 00:26:46;;;;;;;4.78;0.73;;;8.90;99.90;;;;;;5011996;28;20026;-61
2022/04/08 00:29:13;;;;;;;3.35;0.77;;;8.80;99.90;;;;;;5013332;28;20127;-61
2022/04/08 00:31:39;;;;;;;6.75;0.70;;;8.80;99.90;;;;;;5011828;28;20030;-62
2022/04/08 00:34:05;;;;;;;1.80;0.50;;;8.80;99.90;;;;;;5012067;28;20060;-61
2022/04/08 00:36:30;;;;;;;2.17;0.80;;;8.70;99.90;;;;;;5013546;28;20029;-61
2022/04/08 00:38:56;;;;;;;2.17;0.75;;;8.70;99.90;;;;;;5011777;28;20018;-62
2022/04/08 00:41:21;;;;;;;3.50;1.00;;;8.70;99.90;;;;;;5012070;28;20085;-62
2022/04/08 00:43:47;;;;;;;2.75;0.70;;;8.60;99.90;;;;;;5013068;28;20032;-62
2022/04/08 00:46:13;;;;;;;3.72;0.93;;;8.60;99.90;;;;;;5011960;28;20028;-62
2022/04/08 00:48:39;;;;;;;2.95;1.17;;;8.60;99.90;;;;;;5012916;28;20022;-62
2022/04/08 00:51:06;;;;;;;1.95;1.33;;;8.50;99.90;;;;;;5011520;28;20030;-62
2022/04/08 00:53:32;;;;;;;2.55;1.20;;;8.40;99.90;;;;;;5012611;28;20064;-62
2022/04/08 00:55:58;;;;;;;4.25;1.50;;;8.40;99.90;;;;;;5012905;28;20097;-62
2022/04/08 00:58:26;;;;;;;4.00;1.20;;;8.40;99.90;;;;;;5012932;28;20033;-62
2022/04/08 01:00:52;;;;;;;3.65;1.38;;;8.50;99.90;;;;;;5011778;28;20036;-62
2022/04/08 01:03:17;;;;;;;3.33;1.20;;;8.50;99.90;;;;;;5013011;28;20112;-62
2022/04/08 01:05:43;;;;;;;1.48;0.68;;;8.40;99.90;;;;;;5011891;28;20161;-61
2022/04/08 01:08:11;;;;;;;2.28;0.93;;;8.50;99.90;;;;;;5011529;28;20022;-62
2022/04/08 01:10:38;;;;;;;1.83;0.80;;;8.50;99.90;;;;;;5011593;28;20030;-62
2022/04/08 01:13:03;;;;;;;0.75;0.63;;;8.30;99.90;;;;;;5010777;28;20037;-62
2022/04/08 01:15:29;;;;;;;0.88;0.80;;;8.30;99.90;;;;;;5012559;28;20026;-62
2022/04/08 01:17:54;;;;;;;1.42;0.80;;;8.30;99.90;;;;;;5012683;28;20022;-62
2022/04/08 01:20:20;;;;;;;3.80;1.23;;;8.20;99.90;;;;;;5011599;28;20033;-62
2022/04/08 01:22:46;;;;;;;0.98;0.65;;;8.20;99.90;;;;;;5012483;28;20022;-62
2022/04/08 01:25:12;;;;;;;2.03;0.77;;;8.30;99.90;;;;;;5011311;28;20076;-62
2022/04/08 01:27:39;;;;;;;3.65;0.85;;;8.20;99.90;;;;;;5012572;28;20022;-60
2022/04/08 01:30:06;;;;;;;1.65;0.75;;;8.20;99.90;;;;;;5011472;28;20026;-62
2022/04/08 01:32:32;;;;;;;3.25;0.63;;;8.20;99.90;;;;;;5011034;28;20053;-62
2022/04/08 01:34:58;;;;;;;2.20;0.90;;;8.30;99.90;;;;;;5011363;28;20511;-62
2022/04/08 01:37:24;;;;;;;1.73;0.70;;;8.30;99.90;;;;;;5011832;28;20500;-62
2022/04/08 01:39:50;;;;;;;3.10;0.80;;;8.30;99.90;;;;;;5014095;28;20018;-62
2022/04/08 01:42:21;;;;;;;2.97;0.63;;;8.30;99.90;;;;;;5013969;28;20018;-62
2022/04/08 01:44:48;;;;;;;2.60;0.60;;;8.20;99.90;;;;;;5016176;28;20021;-62
2022/04/08 01:47:13;;;;;;;1.27;0.63;;;8.30;99.90;;;;;;5014674;28;20029;-60
2022/04/08 01:49:39;;;;;;;1.38;0.85;;;8.20;99.90;;;;;;5015906;28;20094;-59
2022/04/08 01:52:05;;;;;;;3.55;0.98;;;8.20;99.90;;;;;;5014548;28;20084;-62
2022/04/08 01:54:31;;;;;;;1.63;0.70;;;8.10;99.90;;;;;;5015614;28;20037;-62
2022/04/08 01:56:57;;;;;;;3.72;1.40;;;8.10;99.90;;;;;;5015736;28;20030;-62
2022/04/08 01:59:22;;;;;;;6.78;2.30;;;8.10;99.90;;;;;;5014584;28;20018;-62
2022/04/08 02:01:48;;;;;;;5.82;3.05;;;8.00;99.90;;;;;;5014794;28;20014;-62
2022/04/08 02:04:13;;;;;;;4.03;1.80;;;8.00;99.90;;;;;;5014304;28;20037;-62
2022/04/08 02:06:40;;;;;;;3.38;2.10;;;8.00;99.90;;;;;;5014902;28;20400;-62
2022/04/08 02:09:07;;;;;;;2.38;1.83;;;8.00;99.90;;;;;;5014433;28;20032;-62
2022/04/08 02:11:34;;;;;;;3.83;1.40;;;8.00;99.90;;;;;;5015356;28;20076;-62
2022/04/08 02:13:59;;;;;;;3.78;1.23;;;8.00;99.90;;;;;;5014085;28;20120;-62
2022/04/08 02:16:25;;;;;;;5.28;1.40;;;8.00;99.90;;;;;;5014069;28;20433;-61
2022/04/08 02:18:51;;;;;;;7.60;1.67;;;8.00;99.90;;;;;;5015303;28;20096;-62
2022/04/08 02:21:19;;;;;;;3.88;1.60;;;8.00;99.90;;;;;;5015085;28;20029;-62
2022/04/08 02:23:49;;;;;;;3.03;1.50;;;8.00;99.90;;;;;;5015414;28;20052;-62
2022/04/08 02:26:16;;;;;;;5.80;1.50;;;8.00;99.90;;;;;;5014652;28;20030;-62
2022/04/08 02:28:43;;;;;;;5.00;1.45;;;8.00;99.90;;;;;;5014156;28;20053;-62
2022/04/08 02:31:09;;;;;;;6.32;1.52;;;8.00;99.90;;;;;;5015039;28;20057;-62
2022/04/08 02:33:34;;;;;;;4.38;1.50;;;8.00;99.90;;;;;;5014079;28;20034;-62
2022/04/08 02:36:00;;;;;;;4.00;2.75;;;8.10;99.90;;;;;;5014679;28;20088;-62
2022/04/08 02:38:26;;;;;;;2.35;1.60;;;8.10;99.90;;;;;;5013777;28;20104;-62
2022/04/08 02:40:52;;;;;;;3.05;1.70;;;7.90;99.90;;;;;;5013523;28;20050;-62
2022/04/08 02:43:17;;;;;;;2.22;1.35;;;7.90;99.90;;;;;;5013717;28;20018;-62
2022/04/08 02:45:43;;;;;;;6.63;1.48;;;7.90;99.90;;;;;;5014802;28;20018;-62
2022/04/08 02:48:09;;;;;;;6.13;3.55;;;7.90;99.90;;;;;;5014005;28;20098;-61
2022/04/08 02:50:35;;;;;;;3.53;1.88;;;7.90;99.90;;;;;;5014560;28;20503;-62
2022/04/08 02:53:01;;;;;;;1.42;1.10;;;7.90;99.90;;;;;;5014719;28;20022;-61
2022/04/08 02:55:26;;;;;;;5.15;1.77;;;7.90;99.90;;;;;;5014509;28;20030;-62
2022/04/08 02:57:52;;;;;;;4.15;1.20;;;7.90;99.90;;;;;;5014590;28;20022;-62
2022/04/08 03:00:19;;;;;;;5.15;2.28;;;7.90;99.90;;;;;;5013442;28;20029;-61
2022/04/08 03:02:46;;;;;;;3.95;1.25;;;7.90;99.90;;;;;;5014399;28;20030;-59
2022/04/08 03:05:13;;;;;;;2.63;1.33;;;7.90;99.90;;;;;;5014357;28;20044;-62
2022/04/08 03:07:39;;;;;;;4.18;1.20;;;7.90;99.90;;;;;;5013062;28;20022;-62
2022/04/08 03:10:07;;;;;;;1.60;1.02;;;8.00;99.90;;;;;;5013285;28;20057;-61
2022/04/08 03:12:33;;;;;;;3.25;1.10;;;7.90;99.90;;;;;;5014060;28;20086;-62
2022/04/08 03:14:59;;;;;;;5.10;2.40;;;7.90;99.90;;;;;;5013008;28;20026;-62
2022/04/08 03:17:26;;;;;;;2.97;0.93;;;7.90;99.90;;;;;;5012823;28;20029;-62
2022/04/08 03:19:52;;;;;;;2.95;1.17;;;7.90;99.90;;;;;;5012898;28;20072;-62
2022/04/08 03:22:20;;;;;;;3.90;0.82;;;7.80;99.90;;;;;;5014105;28;20026;-62
2022/04/08 03:24:47;;;;;;;1.65;0.70;;;7.70;99.90;;;;;;5013037;28;20036;-62
2022/04/08 03:27:13;;;;;;;5.10;2.13;;;7.70;99.90;;;;;;5012827;28;20498;-62
2022/04/08 03:29:39;;;;;;;5.70;2.80;;;7.60;99.90;;;;;;5013931;28;20049;-62
2022/04/08 03:32:05;;;;;;;3.00;1.20;;;7.60;99.90;;;;;;5013871;28;20034;-62
2022/04/08 03:34:31;;;;;;;5.30;0.90;;;7.50;99.90;;;;;;5014051;28;20025;-62
2022/04/08 03:36:57;;;;;;;4.20;1.20;;;7.50;99.90;;;;;;5013898;28;20441;-62
2022/04/08 03:39:23;;;;;;;1.08;0.98;;;7.50;99.90;;;;;;5013792;28;20025;-62
2022/04/08 03:41:48;;;;;;;3.70;1.10;;;7.50;99.90;;;;;;5013555;28;20076;-61
2022/04/08 03:44:14;;;;;;;6.97;1.48;;;7.60;99.90;;;;;;5013809;28;20370;-61
2022/04/08 03:46:41;;;;;;;1.90;1.10;;;7.60;99.90;;;;;;5013665;28;20022;-60
2022/04/08 03:49:14;;;;;;;5.93;1.25;;;7.60;99.90;;;;;;5012500;28;20083;-63
2022/04/08 03:51:43;;;;;;;1.13;1.00;;;7.70;99.90;;;;;;5014132;28;20055;-61
2022/04/08 03:54:09;;;;;;;2.05;0.80;;;7.60;99.90;;;;;;5012240;28;20026;-63
2022/04/08 03:56:36;;;;;;;4.85;1.40;;;7.50;99.90;;;;;;5013454;28;20022;-63
2022/04/08 03:59:02;;;;;;;4.25;1.33;;;7.50;99.90;;;;;;5012927;28;20477;-60
2022/04/08 04:01:28;;;;;;;6.82;1.60;;;7.40;99.90;;;;;;5012039;28;20450;-57
2022/04/08 04:03:53;;;;;;;1.85;1.20;;;7.40;99.90;;;;;;5013636;28;20037;-56
2022/04/08 04:06:19;;;;;;;3.80;1.40;;;7.40;99.90;;;;;;5013332;28;20030;-56
2022/04/08 04:08:45;;;;;;;3.88;1.70;;;7.30;99.90;;;;;;5012296;28;20030;-59
2022/04/08 04:11:15;;;;;;;4.05;1.40;;;7.20;99.90;;;;;;5011895;28;20026;-55
2022/04/08 04:13:42;;;;;;;4.28;1.67;;;7.20;99.90;;;;;;5012545;28;20026;-55
2022/04/08 04:16:08;;;;;;;5.57;2.40;;;7.20;99.90;;;;;;5012809;28;20018;-57
2022/04/08 04:18:33;;;;;;;2.15;1.67;;;7.10;99.90;;;;;;5012253;28;20018;-60
2022/04/08 04:20:59;;;;;;;2.72;1.67;;;7.10;99.90;;;;;;5013333;28;20058;-60
2022/04/08 04:23:24;;;;;;;3.47;2.22;;;7.00;99.90;;;;;;5013488;28;20072;-58
2022/04/08 04:25:50;;;;;;;5.63;2.10;;;7.00;99.90;;;;;;5012547;28;20022;-56
2022/04/08 04:28:16;;;;;;;2.20;1.90;;;6.90;99.90;;;;;;5011815;28;20455;-58
2022/04/08 04:30:42;;;;;;;6.55;1.77;;;6.90;99.90;;;;;;5011681;28;20029;-57
2022/04/08 04:33:08;;;;;;;3.17;1.73;;;6.90;99.90;;;;;;5012324;28;20488;-59
2022/04/08 04:35:37;;;;;;;4.70;1.88;;;6.80;99.90;;;;;;5013666;28;20054;-58
2022/04/08 04:38:02;;;;;;;1.88;1.50;;;6.80;99.90;;;;;;5012854;28;20021;-56
2022/04/08 04:40:29;;;;;;;2.22;1.42;;;6.90;99.90;;;;;;5013777;28;20361;-57
2022/04/08 04:42:55;;;;;;;1.60;1.50;;;6.90;99.90;;;;;;5013445;28;20014;-58
2022/04/08 04:45:22;;;;;;;2.33;1.45;;;6.90;99.90;;;;;;5012160;28;20030;-59
2022/04/08 04:47:47;;;;;;;3.50;1.73;;;6.90;99.90;;;;;;5013810;28;20030;-58
2022/04/08 04:50:13;;;;;;;2.85;1.65;;;6.90;99.90;;;;;;5012206;28;20030;-59
2022/04/08 04:52:39;;;;;;;2.63;1.63;;;6.90;99.90;;;;;;5013287;28;20033;-60
2022/04/08 04:55:05;;;;;;;1.95;1.50;;;6.90;99.90;;;;;;5013566;28;20098;-60
2022/04/08 04:57:31;;;;;;;3.10;1.45;;;6.90;99.90;;;;;;5013407;28;20089;-59
2022/04/08 04:59:57;;;;;;;2.17;1.40;;;7.00;99.90;;;;;;5011956;28;20091;-58
2022/04/08 05:02:23;;;;;;;4.32;1.33;;;6.90;99.90;;;;;;5012050;28;20018;-59
2022/04/08 05:04:48;;;;;;;4.68;1.60;;;7.00;99.90;;;;;;5012008;28;20037;-58
2022/04/08 05:07:14;;;;;;;2.67;1.70;;;6.90;99.90;;;;;;5013284;28;20072;-59
2022/04/08 05:09:41;;;;;;;3.90;1.63;;;6.90;99.90;;;;;;5012101;28;20468;-60
2022/04/08 05:12:08;;;;;;;3.63;1.50;;;7.00;99.90;;;;;;5014553;28;20049;-56
2022/04/08 05:14:33;;;;;;;2.70;1.52;;;7.10;99.90;;;;;;5016916;28;20027;-57
2022/04/08 05:16:59;;;;;;;2.63;1.50;;;7.10;99.90;;;;;;5015737;28;20025;-58
2022/04/08 05:19:24;;;;;;;3.83;1.70;;;7.10;99.90;;;;;;5015725;28;20030;-57
2022/04/08 05:21:52;;;;;;;2.65;1.50;;;7.20;99.90;;;;;;5016779;28;20022;-58
2022/04/08 05:24:18;;;;;;;5.32;1.90;;;7.20;99.90;;;;;;5015602;28;20025;-55
2022/04/08 05:26:44;;;;;;;3.35;1.80;;;7.30;99.90;;;;;;5017110;28;20029;-58
2022/04/08 05:29:10;;;;;;;4.40;2.25;;;7.40;99.90;;;;;;5016790;28;20507;-57
2022/04/08 05:31:35;;;;;;;1.90;1.67;;;7.50;99.90;;;;;;5015821;28;20384;-55
2022/04/08 05:34:01;;;;;;;2.63;1.92;;;7.50;99.90;;;;;;5016860;28;20036;-56
2022/04/08 05:36:27;;;;;;;1.90;1.50;;;7.70;99.90;;;;;;5015868;28;20025;-58
2022/04/08 05:38:52;;;;;;;3.67;1.98;;;7.80;99.90;;;;;;5016553;28;20018;-57
2022/04/08 05:41:18;;;;;;;3.30;1.92;;;7.90;99.90;;;;;;5016054;28;20030;-57
2022/04/08 05:43:45;;;;;;;8.13;2.00;;;8.00;99.90;;;;;;5016257;28;20026;-56
2022/04/08 05:46:11;;;;;;;2.53;1.38;;;8.20;99.90;;;;;;5015287;28;20029;-57
2022/04/08 05:48:36;;;;;;;4.35;2.17;;;8.50;99.90;;;;;;5016461;28;20034;-55
2022/04/08 05:51:02;;;;;;;4.15;1.75;;;8.60;99.90;;;;;;5015295;28;20018;-54
2022/04/08 05:53:28;;;;;;;4.50;2.00;;;8.80;99.90;;;;;;5016252;28;20025;-55
2022/04/08 05:55:57;;;;;;;2.85;1.73;;;9.00;99.90;;;;;;5016305;28;20028;-52
2022/04/08 05:58:23;;;;;;;3.03;1.50;;;9.30;99.90;;;;;;5015228;28;20120;-54
2022/04/08 06:00:48;;;;;;;6.00;2.10;;;9.90;99.90;;;;;;5010235;28;20098;-55
2022/04/08 06:03:14;;;;;;;3.00;1.23;;;10.30;99.90;;;;;;4996691;28;20408;-54
2022/04/08 06:05:40;;;;;;;3.20;1.65;;;10.30;99.90;;;;;;4996689;28;20026;-54
2022/04/08 06:08:05;;;;;;;3.70;1.90;;;10.20;99.90;;;;;;4996847;28;20030;-56
2022/04/08 06:10:31;;;;;;;5.03;2.00;;;9.90;99.90;;;;;;4996672;28;20029;-56
2022/04/08 06:12:57;;;;;;;6.97;2.88;;;9.70;99.90;;;;;;4994927;28;20117;-57
2022/04/08 06:15:24;;;;;;;3.55;1.60;;;9.60;99.90;;;;;;4995181;28;20026;-55
2022/04/08 06:17:50;;;;;;;3.83;1.50;;;9.50;99.90;;;;;;4996695;28;20026;-57
2022/04/08 06:20:18;;;;;;;2.72;1.80;;;9.40;99.90;;;;;;4995026;28;20034;-53
2022/04/08 06:22:44;;;;;;;5.18;2.13;;;9.30;99.90;;;;;;4993926;28;20050;-55
2022/04/08 06:25:12;;;;;;;4.95;1.52;;;9.20;99.90;;;;;;4994997;28;20062;-56
2022/04/08 06:27:38;;;;;;;4.00;2.00;;;9.20;99.90;;;;;;4996232;28;20476;-55
2022/04/08 06:30:09;;;;;;;4.40;1.40;;;9.20;99.90;;;;;;4994901;28;20030;-54
2022/04/08 06:32:35;;;;;;;4.88;2.28;;;9.10;99.90;;;;;;4996079;28;20026;-53
2022/04/08 06:35:01;;;;;;;4.32;1.95;;;9.10;99.90;;;;;;4994781;28;20030;-56
2022/04/08 06:37:28;;;;;;;3.55;1.30;;;9.30;99.90;;;;;;4995109;28;20045;-56
2022/04/08 06:39:54;;;;;;;1.98;1.20;;;9.30;99.90;;;;;;4994726;28;20026;-57
2022/04/08 06:42:20;;;;;;;1.92;1.50;;;9.30;99.90;;;;;;4995826;28;20022;-57
2022/04/08 06:44:46;;;;;;;2.05;1.05;;;9.30;99.90;;;;;;4995879;28;20026;-55
2022/04/08 06:47:12;;;;;;;4.43;1.00;;;9.30;99.90;;;;;;4994600;28;20049;-53
2022/04/08 06:49:43;;;;;;;2.10;1.23;;;9.10;99.90;;;;;;4994806;28;20034;-56
2022/04/08 06:52:09;;;;;;;1.63;1.10;;;9.10;99.90;;;;;;5010756;28;20027;-58
2022/04/08 06:54:35;;;;;;;1.77;1.00;;;9.20;99.90;;;;;;4994305;28;20034;-57
2022/04/08 06:57:00;;;;;;;1.30;1.00;;;9.20;99.90;;;;;;4995690;28;20022;-55
2022/04/08 06:59:26;;;;;;;3.78;2.08;;;9.10;99.90;;;;;;4994915;28;20019;-54
2022/04/08 07:01:52;;;;;;;1.27;1.10;;;9.20;99.90;;;;;;4994507;28;20069;-51
2022/04/08 07:04:17;;;;;;;1.75;0.90;;;9.20;99.90;;;;;;4994439;28;20042;-56
2022/04/08 07:06:43;;;;;;;1.67;1.10;;;9.30;99.90;;;;;;5010478;28;20397;-55
2022/04/08 07:09:08;;;;;;;1.02;0.63;;;9.40;99.90;;;;;;4995363;28;20026;-56
2022/04/08 07:11:35;;;;;;;4.70;0.95;;;9.50;99.90;;;;;;4994298;28;20026;-56
2022/04/08 07:14:01;;;;;;;5.22;0.90;;;9.60;99.90;;;;;;4994803;28;20120;-55
2022/04/08 07:16:27;;;;;;;4.80;2.00;;;9.80;99.90;;;;;;4994578;28;20084;-57
2022/04/08 07:18:58;;;;;;;1.55;0.93;;;9.80;99.90;;;;;;4993970;28;20022;-58
2022/04/08 07:21:23;;;;;;;1.55;0.90;;;9.80;99.90;;;;;;4993873;28;20049;-55
2022/04/08 07:23:49;;;;;;;2.90;0.93;;;9.90;99.90;;;;;;4993825;28;20026;-52
2022/04/08 07:26:18;;;;;;;5.45;1.63;;;9.80;99.90;;;;;;4995055;28;20090;-58
2022/04/08 07:28:44;;;;;;;4.40;1.33;;;10.00;99.90;;;;;;4994101;28;20037;-57
2022/04/08 07:31:10;;;;;;;2.53;1.30;;;9.90;99.90;;;;;;4993601;28;20033;-58
2022/04/08 07:33:36;;;;;;;6.53;2.40;;;9.90;99.90;;;;;;4994748;28;20112;-56
2022/04/08 07:36:03;;;;;;;5.25;2.25;;;9.90;99.90;;;;;;4995194;28;20097;-58
2022/04/08 07:38:29;;;;;;;3.83;1.00;;;10.00;99.90;;;;;;4994885;28;20492;-54
2022/04/08 07:40:54;;;;;;;4.60;1.00;;;10.00;99.90;;;;;;4993702;28;20026;-56
2022/04/08 07:43:20;;;;;;;1.63;0.85;;;9.90;99.90;;;;;;4995075;28;20018;-56
2022/04/08 07:45:45;;;;;;;7.35;2.90;;;9.90;99.90;;;;;;4994641;28;20105;-57
2022/04/08 07:48:11;;;;;;;4.75;1.95;;;10.00;99.90;;;;;;4993857;28;20032;-56
2022/04/08 07:50:37;;;;;;;3.75;1.80;;;9.90;99.90;;;;;;4993628;28;20187;-57
2022/04/08 07:53:04;;;;;;;1.95;1.50;;;10.00;99.90;;;;;;4994126;28;20121;-53
2022/04/08 07:55:29;;;;;;;4.75;1.00;;;9.90;99.90;;;;;;4994431;28;20037;-58
2022/04/08 07:57:55;;;;;;;2.83;1.38;;;9.90;99.90;;;;;;4993471;28;20026;-58
2022/04/08 08:00:28;;;;;;;2.40;1.27;;;10.00;99.90;;;;;;4993243;28;20026;-58
2022/04/08 08:02:54;;;;;;;1.95;0.90;;;9.90;99.90;;;;;;4993413;28;20018;-58
2022/04/08 08:05:21;;;;;;;6.03;1.05;;;10.00;99.90;;;;;;4994404;28;20030;-56
2022/04/08 08:07:51;;;;;;;1.88;1.02;;;10.00;99.90;;;;;;4993095;28;20030;-57
2022/04/08 08:10:26;;;;;;;8.23;2.80;;;10.10;99.90;;;;;;5009716;28;20054;-54
2022/04/08 08:12:53;;;;;;;6.18;0.98;;;10.00;99.90;;;;;;4993010;28;20106;-55
2022/04/08 08:15:19;;;;;;;4.00;1.95;;;9.90;99.90;;;;;;4993098;28;20027;-56
2022/04/08 08:17:45;;;;;;;5.10;1.73;;;9.80;99.90;;;;;;4993014;28;20022;-55
2022/04/08 08:20:13;;;;;;;3.35;0.90;;;9.80;99.90;;;;;;4994421;28;20023;-57
2022/04/08 08:22:38;;;;;;;3.78;1.48;;;9.80;99.90;;;;;;4994108;28;20023;-58
2022/04/08 08:25:06;;;;;;;2.30;1.20;;;9.70;99.90;;;;;;4992845;28;20093;-58
2022/04/08 08:27:38;;;;;;;0.98;0.90;;;9.70;99.90;;;;;;4994096;28;20026;-55
2022/04/08 08:30:05;;;;;;;1.55;0.93;;;9.60;99.90;;;;;;5009480;28;20117;-53
2022/04/08 08:32:31;;;;;;;2.53;1.60;;;9.50;99.90;;;;;;4993006;28;20037;-58
2022/04/08 08:34:57;;;;;;;5.00;1.42;;;9.50;99.90;;;;;;4992990;28;20034;-54
2022/04/08 08:37:22;;;;;;;2.63;1.50;;;9.40;99.90;;;;;;4994021;28;20028;-57
2022/04/08 08:39:48;;;;;;;3.50;1.45;;;9.40;99.90;;;;;;4993973;28;20022;-57
2022/04/08 08:42:13;;;;;;;4.03;1.50;;;9.40;99.90;;;;;;4992533;28;20023;-58
2022/04/08 08:44:39;;;;;;;3.10;1.17;;;9.60;99.90;;;;;;4994218;28;20117;-57
2022/04/08 08:47:11;;;;;;;2.78;1.13;;;9.60;99.90;;;;;;4996562;28;20022;-56
2022/04/08 08:49:38;;;;;;;1.88;1.40;;;9.60;99.90;;;;;;4998583;28;20374;-58
2022/04/08 08:52:07;;;;;;;4.28;1.10;;;9.60;99.90;;;;;;4996598;28;20038;-59
2022/04/08 08:54:33;;;;;;;3.53;1.60;;;9.70;99.90;;;;;;4998130;28;20117;-58
2022/04/08 08:57:02;;;;;;;1.90;1.70;;;9.60;99.90;;;;;;4996730;28;20092;-58
2022/04/08 08:59:29;;;;;;;7.00;2.20;;;9.50;99.90;;;;;;4998064;28;20057;-57
2022/04/08 09:02:02;;;;;;;4.30;1.65;;;9.40;99.90;;;;;;4996429;28;20050;-56
2022/04/08 09:04:31;;;;;;;3.05;2.00;;;9.50;99.90;;;;;;4997006;28;20084;-56
2022/04/08 09:06:58;;;;;;;5.55;2.15;;;9.50;99.90;;;;;;4996372;28;20022;-56
2022/04/08 09:09:33;;;;;;;3.17;1.40;;;9.50;99.90;;;;;;4997665;28;20030;-54
2022/04/08 09:12:12;;;;;;;7.35;2.45;;;9.40;99.90;;;;;;4997598;28;20118;-57
2022/04/08 09:14:37;;;;;;;2.92;2.08;;;9.50;99.90;;;;;;4997461;28;20026;-58
2022/04/08 09:17:03;;;;;;;3.08;2.00;;;9.50;99.90;;;;;;4996422;28;20030;-57
2022/04/08 09:19:33;;;;;;;5.68;2.50;;;9.30;99.90;;;;;;4997786;28;20078;-56
2022/04/08 09:21:59;;;;;;;4.55;2.08;;;9.40;99.90;;;;;;5012403;28;20025;-56
2022/04/08 09:24:26;;;;;;;7.70;2.20;;;9.40;99.90;;;;;;4998069;28;20026;-57
2022/04/08 09:26:53;;;;;;;5.95;2.20;;;9.50;99.90;;;;;;4997399;28;20018;-58
2022/04/08 09:29:20;;;;;;;6.70;3.63;;;9.60;99.90;;;;;;4997591;28;20109;-57
2022/04/08 09:31:49;;;;;;;7.40;3.00;;;9.70;99.90;;;;;;4996679;28;20211;-57
2022/04/08 09:34:16;;;;;;;6.30;2.17;;;9.70;99.90;;;;;;4995854;28;20027;-55
2022/04/08 09:36:43;;;;;;;7.30;2.72;;;9.80;99.90;;;;;;4997390;28;20019;-56
2022/04/08 09:39:10;;;;;;;4.93;2.58;;;9.70;99.90;;;;;;4997102;28;20037;-56
2022/04/08 09:42:06;;;;;;;3.50;1.60;;;9.90;99.90;;;;;;4995720;28;20095;-59
2022/04/08 09:44:35;;;;;;;5.30;1.70;;;10.00;99.90;;;;;;4994548;28;20034;-57
2022/04/08 09:47:01;;;;;;;4.05;2.33;;;10.10;99.90;;;;;;4996886;28;20026;-56
2022/04/08 09:49:27;;;;;;;7.82;2.90;;;10.20;99.90;;;;;;4995566;28;20026;-55
2022/04/08 09:51:54;;;;;;;4.60;2.10;;;10.30;99.90;;;;;;4995589;28;20117;-58
2022/04/08 09:54:24;;;;;;;3.60;1.85;;;10.30;99.90;;;;;;4995662;28;20022;-55
2022/04/08 09:56:52;;;;;;;2.85;2.13;;;10.30;99.90;;;;;;4995744;28;20022;-57
2022/04/08 09:59:22;;;;;;;2.38;1.60;;;10.30;99.90;;;;;;4995469;28;20019;-55
2022/04/08 10:01:49;;;;;;;2.83;1.73;;;10.30;99.90;;;;;;4995695;28;20030;-58
2022/04/08 10:04:15;;;;;;;4.47;2.05;;;10.20;99.90;;;;;;4995295;28;20080;-57
2022/04/08 10:06:42;;;;;;;4.35;2.92;;;10.20;99.90;;;;;;4996532;28;20035;-56
2022/04/08 10:09:13;;;;;;;3.25;1.73;;;10.20;99.90;;;;;;4996517;28;20026;-57
2022/04/08 10:11:50;;;;;;;3.42;1.98;;;10.20;99.90;;;;;;5011484;28;20081;-57
2022/04/08 10:14:49;;;;;;;8.18;2.38;;;10.20;99.90;;;;;;4995173;28;20031;-57
2022/04/08 10:17:16;;;;;;;4.07;1.95;;;10.30;99.90;;;;;;5011489;28;20023;-55
2022/04/08 10:19:41;;;;;;;8.10;4.07;;;10.20;99.90;;;;;;4996709;28;20069;-56
2022/04/08 10:22:18;;;;;;;6.75;3.10;;;10.20;99.90;;;;;;4995049;28;20473;-55
2022/04/08 10:24:57;;;;;;;6.93;2.08;;;10.30;99.90;;;;;;4996505;28;20034;-57
2022/04/08 10:27:31;;;;;;;5.57;2.40;;;10.40;99.90;;;;;;4995109;28;20034;-57
2022/04/08 10:29:57;;;;;;;5.40;1.98;;;10.40;99.90;;;;;;4995332;28;20054;-58
2022/04/08 10:32:23;;;;;;;3.33;2.00;;;10.60;99.90;;;;;;4994850;28;20061;-56
2022/04/08 10:34:49;;;;;;;4.03;1.70;;;10.70;99.90;;;;;;4996122;28;20026;-58
2022/04/08 10:37:21;;;;;;;4.40;1.88;;;10.80;99.90;;;;;;4995177;28;20018;-55
2022/04/08 10:39:57;;;;;;;15.38;5.13;;;10.90;99.90;;;;;;4995471;28;20034;-56
2022/04/08 10:42:23;;;;;;;4.00;2.13;;;10.90;99.90;;;;;;4995862;28;20097;-54
2022/04/08 10:44:49;;;;;;;3.88;2.05;;;11.10;99.90;;;;;;4994679;28;20073;-55
2022/04/08 10:47:20;;;;;;;3.70;1.65;;;10.80;99.90;;;;;;4994901;28;20058;-56
2022/04/08 10:50:04;;;;;;;5.07;2.60;;;11.10;99.90;;;;;;4994693;28;20060;-58
2022/04/08 10:52:38;;;;;;;5.68;2.60;;;11.00;99.90;;;;;;4995623;28;20034;-56
2022/04/08 10:55:08;;;;;;;3.92;1.85;;;10.80;99.90;;;;;;4995647;28;20412;-54
2022/04/08 10:57:34;;;;;;;5.60;2.30;;;10.70;99.90;;;;;;4994345;28;20078;-56
2022/04/08 11:00:07;;;;;;;5.18;2.30;;;10.60;99.90;;;;;;4994625;28;20080;-58
2022/04/08 11:02:35;;;;;;;2.92;1.83;;;10.40;99.90;;;;;;4995465;28;20545;-58
2022/04/08 11:05:05;;;;;;;4.10;2.40;;;10.20;99.90;;;;;;4994555;28;20046;-57
2022/04/08 11:07:34;;;;;;;6.00;2.40;;;10.20;99.90;;;;;;4995491;28;20054;-58
2022/04/08 11:10:00;;;;;;;4.70;2.53;;;10.10;99.90;;;;;;4995080;28;20044;-57
2022/04/08 11:12:28;;;;;;;5.55;2.50;;;10.10;99.90;;;;;;4995302;28;20030;-58
2022/04/08 11:14:58;;;;;;;6.38;2.90;;;10.00;99.90;;;;;;4995191;28;20052;-59
2022/04/08 11:17:34;;;;;;;4.85;2.90;;;9.90;99.90;;;;;;4995242;28;20030;-56
2022/04/08 11:19:59;;;;;;;6.28;2.83;;;9.80;99.90;;;;;;4995232;28;20389;-59
2022/04/08 11:22:26;;;;;;;6.43;1.90;;;9.90;99.90;;;;;;4995425;28;20026;-58
2022/04/08 11:24:56;;;;;;;7.63;1.95;;;9.90;99.90;;;;;;4994009;28;20033;-56
2022/04/08 11:27:22;;;;;;;9.32;2.75;;;9.90;99.90;;;;;;4995135;28;20452;-55
2022/04/08 11:29:48;;;;;;;3.70;1.80;;;10.10;99.90;;;;;;4993731;28;20121;-58
2022/04/08 11:32:14;;;;;;;2.88;1.80;;;10.40;99.90;;;;;;4994033;28;20026;-59
2022/04/08 11:34:40;;;;;;;4.35;1.50;;;10.50;99.90;;;;;;4994909;28;20118;-58
2022/04/08 11:37:05;;;;;;;5.20;1.80;;;10.60;99.90;;;;;;4994146;28;20050;-57
2022/04/08 11:39:31;;;;;;;4.90;1.80;;;10.60;99.90;;;;;;4994939;28;20018;-59
2022/04/08 11:41:59;;;;;;;2.42;1.23;;;10.50;99.90;;;;;;4993848;28;20037;-56
2022/04/08 11:44:28;;;;;;;3.53;1.30;;;10.50;99.90;;;;;;4994800;28;20034;-56
2022/04/08 11:47:05;;;;;;;3.45;0.90;;;10.80;99.90;;;;;;4994574;28;20037;-58
2022/04/08 11:49:32;;;;;;;4.00;1.10;;;10.70;99.90;;;;;;4993581;28;20034;-55
2022/04/08 11:52:05;;;;;;;4.07;1.20;;;10.40;99.90;;;;;;4993672;28;20026;-58
2022/04/08 11:54:37;;;;;;;4.38;0.57;;;10.30;99.90;;;;;;4993824;28;20026;-59
2022/04/08 11:57:07;;;;;;;0.88;0.55;;;10.20;99.90;;;;;;4994560;28;20022;-59
2022/04/08 11:59:34;;;;;;;2.15;0.50;;;10.00;99.90;;;;;;4994634;28;20046;-58
2022/04/08 12:02:00;;;;;;;1.95;0.70;;;10.00;99.90;;;;;;4994555;28;20027;-59
2022/04/08 12:04:27;;;;;;;3.50;0.80;;;10.10;99.90;;;;;;4994949;28;20038;-58
2022/04/08 12:06:52;;;;;;;3.00;0.40;;;9.90;99.90;;;;;;5009474;28;20107;-58
2022/04/08 12:09:20;;;;;;;7.57;0.73;;;9.70;99.90;;;;;;4993184;28;20066;-57
2022/04/08 12:11:47;;;;;;;2.13;0.55;;;9.70;99.90;;;;;;4994467;28;20022;-57
2022/04/08 12:14:14;;;;;;;2.17;0.40;;;9.70;99.90;;;;;;4993136;28;20038;-58
2022/04/08 12:16:41;;;;;;;2.15;0.43;;;9.80;99.90;;;;;;4993417;28;20030;-58
2022/04/08 12:19:09;;;;;;;2.47;0.68;;;9.70;99.90;;;;;;4993206;28;20389;-57
2022/04/08 12:21:39;;;;;;;4.03;0.60;;;9.70;99.90;;;;;;4993370;28;20030;-58
2022/04/08 12:24:07;;;;;;;2.28;0.65;;;9.70;99.90;;;;;;4993256;28;20026;-57
2022/04/08 12:26:38;;;;;;;6.43;0.70;;;9.70;99.90;;;;;;4993260;28;20037;-57
2022/04/08 12:29:12;;;;;;;4.60;2.00;;;9.70;99.90;;;;;;4992853;28;20453;-54
2022/04/08 12:31:53;;;;;;;1.23;0.60;;;9.70;99.90;;;;;;4992756;28;20065;-57
2022/04/08 12:34:19;;;;;;;3.17;1.10;;;9.60;99.90;;;;;;5009031;28;20030;-56
2022/04/08 12:36:46;;;;;;;2.38;0.70;;;9.50;99.90;;;;;;4994268;28;20028;-57
2022/04/08 12:39:12;;;;;;;2.50;1.15;;;9.40;99.90;;;;;;4994047;28;20081;-57
2022/04/08 12:41:43;;;;;;;1.58;0.50;;;9.50;99.90;;;;;;4993896;28;20030;-57
2022/04/08 12:44:09;;;;;;;1.08;0.40;;;9.60;99.90;;;;;;4993587;28;20022;-54
2022/04/08 12:46:36;;;;;;;1.55;0.32;;;9.80;99.90;;;;;;4992630;28;20057;-58
2022/04/08 12:49:02;;;;;;;1.73;0.60;;;9.70;99.90;;;;;;4992758;28;20030;-55
2022/04/08 12:51:28;;;;;;;1.58;0.30;;;9.50;99.90;;;;;;4992779;28;20030;-58
2022/04/08 12:53:55;;;;;;;0.85;0.50;;;9.40;99.90;;;;;;4994053;28;20107;-58